createdAt,value
2022-09-07T00:06:41.614Z,2.50
2022-09-07T00:21:50.294Z,2.25
2022-09-07T00:36:59.284Z,2.00
2022-09-07T00:52:30.135Z,2.20
2022-09-07T01:00:06.664Z,2.20
2022-09-07T01:07:42.500Z,2.00
2022-09-07T01:15:16.378Z,2.30
2022-09-07T01:23:22.366Z,1.80
2022-09-07T01:31:00.210Z,2.35
2022-09-07T01:38:42.187Z,2.03
2022-09-07T01:46:22.061Z,1.73
2022-09-07T01:54:00.183Z,2.00
2022-09-07T02:01:40.256Z,1.83
2022-09-07T02:09:20.878Z,1.67
2022-09-07T02:17:00.015Z,1.58
2022-09-07T02:24:38.146Z,1.85
2022-09-07T02:32:13.342Z,2.20
2022-09-07T02:47:35.016Z,2.25
2022-09-07T02:55:18.785Z,1.55
2022-09-07T03:03:09.093Z,1.67
2022-09-07T03:10:44.203Z,1.58
2022-09-07T03:25:53.159Z,2.13
2022-09-07T03:33:28.268Z,2.08
2022-09-07T03:48:39.132Z,1.83
2022-09-07T03:56:19.319Z,1.88
2022-09-07T04:04:01.773Z,2.08
2022-09-07T04:11:36.141Z,2.58
2022-09-07T04:19:11.288Z,2.70
2022-09-07T04:34:20.773Z,2.20
2022-09-07T04:49:30.429Z,2.80
2022-09-07T04:57:04.267Z,2.33
2022-09-07T05:04:39.458Z,2.65
2022-09-07T05:19:49.226Z,3.80
2022-09-07T05:27:23.050Z,2.47
2022-09-07T05:34:58.228Z,2.40
2022-09-07T05:50:08.996Z,2.95
2022-09-07T05:57:42.993Z,3.33
2022-09-07T06:05:18.591Z,3.40
2022-09-07T06:12:53.542Z,2.85
2022-09-07T06:20:28.788Z,4.35
2022-09-07T06:35:37.905Z,3.60
2022-09-07T06:43:11.721Z,3.55
2022-09-07T06:50:56.319Z,3.85
2022-09-07T06:58:30.375Z,3.92
2022-09-07T07:06:06.513Z,4.07
2022-09-07T07:13:41.628Z,4.47
2022-09-07T07:29:00.777Z,3.80
2022-09-07T07:36:37.567Z,4.63
2022-09-07T07:44:13.270Z,4.95
2022-09-07T07:59:42.482Z,4.37
2022-09-07T08:07:18.800Z,4.50
2022-09-07T08:14:54.066Z,4.75
2022-09-07T08:22:32.983Z,4.45
2022-09-07T08:30:10.582Z,5.55
2022-09-07T08:37:45.691Z,4.97
2022-09-07T08:53:03.294Z,5.38
2022-09-07T09:00:39.414Z,4.95
2022-09-07T09:08:28.387Z,5.45
2022-09-07T09:16:07.075Z,6.70
2022-09-07T09:23:44.395Z,7.38
2022-09-07T09:31:20.222Z,5.15
2022-09-07T09:38:56.433Z,6.05
2022-09-07T09:46:33.557Z,6.05
2022-09-07T09:54:24.176Z,6.63
2022-09-07T10:09:55.579Z,7.20
2022-09-07T10:17:31.794Z,6.57
2022-09-07T10:25:30.523Z,7.75
2022-09-07T10:33:09.115Z,7.20
2022-09-07T10:40:48.580Z,7.85
2022-09-07T10:48:31.090Z,8.27
2022-09-07T10:56:10.898Z,8.57
2022-09-07T11:03:58.243Z,7.68
2022-09-07T11:19:38.160Z,8.55
2022-09-07T11:27:19.995Z,9.30
2022-09-07T11:34:58.581Z,9.23
2022-09-07T11:42:45.993Z,8.65
2022-09-07T11:50:23.082Z,8.43
2022-09-07T11:58:25.052Z,8.60
2022-09-07T12:06:22.205Z,8.95
2022-09-07T12:14:16.308Z,9.05
2022-09-07T12:21:56.911Z,9.00
2022-09-07T12:29:32.651Z,8.13
2022-09-07T12:37:44.780Z,8.57
2022-09-07T12:45:56.637Z,8.77
2022-09-07T12:53:35.550Z,8.25
2022-09-07T13:01:21.357Z,8.95
2022-09-07T13:09:30.489Z,8.15
2022-09-07T13:17:41.595Z,8.93
2022-09-07T13:25:48.310Z,7.88
2022-09-07T13:33:48.518Z,7.93
2022-09-07T13:41:27.033Z,8.93
2022-09-07T13:49:08.227Z,8.30
2022-09-07T13:56:54.076Z,9.07
2022-09-07T14:04:36.072Z,8.02
2022-09-07T14:12:16.912Z,8.27
2022-09-07T14:19:51.922Z,8.55
2022-09-07T14:27:33.561Z,8.20
2022-09-07T14:35:12.792Z,8.68
2022-09-07T14:42:49.813Z,8.75
2022-09-07T14:50:27.531Z,7.90
2022-09-07T14:58:23.126Z,8.55
2022-09-07T15:06:01.204Z,8.05
2022-09-07T15:13:39.936Z,8.88
2022-09-07T15:21:13.737Z,8.30
2022-09-07T15:36:45.019Z,7.97
2022-09-07T15:44:25.025Z,7.65
2022-09-07T15:52:07.110Z,7.82
2022-09-07T15:59:42.208Z,7.22
2022-09-07T16:07:15.886Z,7.78
2022-09-07T16:14:56.435Z,7.35
2022-09-07T16:30:26.087Z,8.15
2022-09-07T16:46:04.666Z,7.88
2022-09-07T16:53:39.739Z,8.27
2022-09-07T17:01:17.383Z,8.07
2022-09-07T17:08:51.503Z,8.10
2022-09-07T17:16:28.898Z,8.17
2022-09-07T17:24:04.207Z,7.50
2022-09-07T17:39:33.877Z,6.53
2022-09-07T17:47:09.415Z,5.32
2022-09-07T17:54:43.032Z,4.63
2022-09-07T18:02:18.028Z,3.47
2022-09-07T18:09:52.564Z,3.13
2022-09-07T18:17:28.151Z,2.95
2022-09-07T18:25:03.479Z,2.78
2022-09-07T18:32:38.768Z,3.35
2022-09-07T18:40:12.707Z,3.60
2022-09-07T18:47:47.898Z,4.97
2022-09-07T18:55:21.748Z,4.70
2022-09-07T19:02:56.770Z,5.28
2022-09-07T19:10:30.526Z,5.43
2022-09-07T19:18:06.564Z,6.68
2022-09-07T19:25:43.149Z,7.03
2022-09-07T19:33:18.580Z,7.10
2022-09-07T19:40:58.873Z,7.13
2022-09-07T19:48:33.913Z,7.30
2022-09-07T19:56:09.627Z,7.97
2022-09-07T20:03:46.449Z,7.68
2022-09-07T20:11:20.336Z,6.35
2022-09-07T20:18:55.628Z,6.65
2022-09-07T20:26:30.331Z,7.72
2022-09-07T20:34:05.514Z,7.47
2022-09-07T20:41:39.304Z,6.78
2022-09-07T20:49:14.405Z,7.63
2022-09-07T20:56:48.087Z,6.63
2022-09-07T21:04:26.426Z,6.53
2022-09-07T21:12:00.078Z,6.55
2022-09-07T21:19:36.887Z,7.13
2022-09-07T21:27:10.490Z,7.38
2022-09-07T21:34:45.511Z,8.13
2022-09-07T21:49:54.155Z,6.88
2022-09-07T21:57:27.954Z,6.93
2022-09-07T22:05:02.967Z,6.07
2022-09-07T22:20:12.855Z,6.60
2022-09-07T22:27:46.549Z,6.28
2022-09-07T22:35:22.030Z,6.25
2022-09-07T22:42:55.643Z,5.88
2022-09-07T22:50:30.696Z,6.72
2022-09-07T23:05:39.676Z,5.43
2022-09-07T23:13:16.802Z,5.55
2022-09-07T23:20:52.005Z,5.18
2022-09-07T23:36:03.167Z,5.22
2022-09-07T23:43:36.974Z,4.85
2022-09-07T23:51:12.888Z,5.82
2022-09-07T23:58:46.578Z,5.10
